createdAt,value
2018-01-31T01:52:20.812Z,85.83
2018-01-31T01:53:11.358Z,86.40
2018-01-31T01:54:11.369Z,86.40
2018-01-31T01:55:11.382Z,86.59
2018-01-31T01:56:11.401Z,86.59
2018-01-31T01:57:11.410Z,86.02
2018-01-31T01:58:11.430Z,85.64
2018-01-31T01:59:11.436Z,86.30
2018-01-31T02:00:11.448Z,86.49
2018-01-31T02:01:11.461Z,86.40
2018-01-31T02:02:11.475Z,85.64
2018-01-31T02:03:11.487Z,85.26
2018-01-31T02:04:11.503Z,85.36
2018-01-31T02:05:11.519Z,85.45
2018-01-31T02:06:11.529Z,85.36
2018-01-31T02:07:11.542Z,84.45
2018-01-31T02:08:11.554Z,84.64
2018-01-31T02:09:11.574Z,84.64
2018-01-31T02:10:11.580Z,85.36
2018-01-31T02:11:11.593Z,85.93
2018-01-31T02:12:11.609Z,85.74
2018-01-31T02:13:11.622Z,85.55
2018-01-31T02:14:11.633Z,85.26
2018-01-31T02:15:11.653Z,85.49
2018-01-31T02:16:11.660Z,85.64
2018-01-31T02:17:11.674Z,85.64
2018-01-31T02:18:11.688Z,85.40
2018-01-31T02:19:11.700Z,85.68
2018-01-31T02:20:11.717Z,85.59
2018-01-31T02:21:11.729Z,85.83
2018-01-31T02:22:11.739Z,85.49
2018-01-31T02:23:11.753Z,85.40
2018-01-31T02:24:11.766Z,85.68
2018-01-31T02:25:11.782Z,85.87
2018-01-31T02:26:11.796Z,86.07
2018-01-31T02:27:11.811Z,85.59
2018-01-31T02:28:11.822Z,85.68
2018-01-31T02:29:11.835Z,85.78
2018-01-31T02:30:11.852Z,85.59
2018-01-31T02:31:11.864Z,85.11
2018-01-31T02:32:11.876Z,85.40
2018-01-31T02:33:11.890Z,85.11
2018-01-31T02:34:11.900Z,85.02
2018-01-31T02:35:11.913Z,85.02
2018-01-31T02:36:11.929Z,84.83
2018-01-31T02:37:11.940Z,85.30
2018-01-31T02:38:11.958Z,85.40
2018-01-31T02:39:11.967Z,85.21
2018-01-31T02:40:11.984Z,85.40
2018-01-31T02:41:12.000Z,84.83
2018-01-31T02:42:12.010Z,84.97
2018-01-31T02:43:12.026Z,85.30
2018-01-31T02:44:12.037Z,85.49
2018-01-31T02:45:12.049Z,85.40
2018-01-31T02:46:12.064Z,85.87
2018-01-31T02:47:12.076Z,85.02
2018-01-31T02:48:12.090Z,85.25
2018-01-31T02:49:12.105Z,84.87
2018-01-31T02:50:12.119Z,84.97
2018-01-31T02:51:12.131Z,84.87
2018-01-31T02:52:12.146Z,84.59
2018-01-31T02:53:12.159Z,85.06
2018-01-31T02:54:12.177Z,85.49
2018-01-31T02:55:12.188Z,85.53
2018-01-31T02:56:12.201Z,85.25
2018-01-31T02:57:12.213Z,85.30
2018-01-31T02:58:12.232Z,85.87
2018-01-31T02:59:12.242Z,86.01
2018-01-31T03:00:12.256Z,85.44
2018-01-31T03:01:12.273Z,85.16
2018-01-31T03:02:12.286Z,85.44
2018-01-31T03:03:12.296Z,85.91
2018-01-31T03:04:12.311Z,85.25
2018-01-31T03:05:12.327Z,85.53
2018-01-31T03:06:12.340Z,85.44
2018-01-31T03:07:12.351Z,85.35
2018-01-31T03:08:12.368Z,85.16
2018-01-31T03:09:12.379Z,85.53
2018-01-31T03:10:12.393Z,85.35
2018-01-31T03:11:12.409Z,85.35
2018-01-31T03:12:12.430Z,85.44
2018-01-31T03:13:12.436Z,85.35
2018-01-31T03:14:12.450Z,85.44
2018-01-31T03:15:12.462Z,85.25
2018-01-31T03:16:12.477Z,85.16
2018-01-31T03:17:12.491Z,85.63
2018-01-31T03:18:12.507Z,86.20
2018-01-31T03:19:12.517Z,85.82
2018-01-31T03:20:12.531Z,85.91
2018-01-31T03:21:12.547Z,86.01
2018-01-31T03:22:12.558Z,86.49
2018-01-31T03:23:12.572Z,86.39
2018-01-31T03:24:12.587Z,86.44
2018-01-31T03:25:12.599Z,86.82
2018-01-31T03:26:12.620Z,87.01
2018-01-31T03:27:12.629Z,87.39
2018-01-31T03:28:12.641Z,87.34
2018-01-31T03:29:12.654Z,87.05
2018-01-31T03:30:12.673Z,87.24
2018-01-31T03:31:12.688Z,87.05
2018-01-31T03:32:12.698Z,87.05
2018-01-31T03:33:12.711Z,87.34
2018-01-31T03:34:12.724Z,86.49
2018-01-31T03:35:12.739Z,86.58
2018-01-31T03:36:12.752Z,86.39
2018-01-31T03:37:12.765Z,86.20
2018-01-31T03:38:12.778Z,87.15
2018-01-31T03:39:12.792Z,87.62
2018-01-31T03:40:12.806Z,87.82
2018-01-31T03:41:12.821Z,87.53
2018-01-31T03:42:12.838Z,87.24
2018-01-31T03:43:12.847Z,88.01
2018-01-31T03:44:12.864Z,87.91
2018-01-31T03:45:12.922Z,88.57
2018-01-31T03:46:12.891Z,88.20
2018-01-31T03:47:12.903Z,88.39
2018-01-31T03:48:12.916Z,88.67
2018-01-31T03:49:12.931Z,88.86
2018-01-31T03:50:12.945Z,88.67
2018-01-31T03:51:12.960Z,89.24
2018-01-31T03:52:12.971Z,89.81
2018-01-31T03:53:12.985Z,89.72
2018-01-31T03:54:13.003Z,89.62
2018-01-31T03:55:13.014Z,89.90
2018-01-31T03:56:13.029Z,89.90
2018-01-31T03:57:13.043Z,90.85
2018-01-31T03:58:13.054Z,90.76
2018-01-31T03:59:13.070Z,90.38
2018-01-31T04:00:13.084Z,90.66
2018-01-31T04:01:13.097Z,90.57
2018-01-31T04:02:13.112Z,90.76
2018-01-31T04:03:13.124Z,90.38
2018-01-31T04:04:13.140Z,90.47
2018-01-31T04:05:13.155Z,90.76
2018-01-31T04:06:13.168Z,90.66
2018-01-31T04:07:13.181Z,89.81
2018-01-31T04:08:13.196Z,89.62
2018-01-31T04:09:13.209Z,90.28
2018-01-31T04:10:13.242Z,90.28
2018-01-31T04:11:13.289Z,90.19
2018-01-31T04:12:13.250Z,90.09
2018-01-31T04:13:13.266Z,89.72
2018-01-31T04:14:13.278Z,89.81
2018-01-31T04:15:13.292Z,90.19
2018-01-31T04:16:13.308Z,90.28
2018-01-31T04:17:13.322Z,90.66
2018-01-31T04:18:13.337Z,90.57
2018-01-31T04:19:13.351Z,90.28
2018-01-31T04:20:13.364Z,89.81
2018-01-31T04:21:13.378Z,89.86
2018-01-31T04:22:13.396Z,90.33
2018-01-31T04:23:13.405Z,89.53
2018-01-31T04:24:13.419Z,89.76
2018-01-31T04:25:13.434Z,89.95
2018-01-31T04:26:13.448Z,89.67
2018-01-31T04:27:13.463Z,89.76
2018-01-31T04:28:13.477Z,90.09
2018-01-31T04:29:13.503Z,90.66
2018-01-31T04:30:13.505Z,90.47
2018-01-31T04:31:13.521Z,90.71
2018-01-31T04:32:13.533Z,90.14
2018-01-31T04:33:13.548Z,90.23
2018-01-31T04:34:13.562Z,89.57
2018-01-31T04:35:13.575Z,89.57
2018-01-31T04:36:13.591Z,89.86
2018-01-31T04:37:13.602Z,89.86
2018-01-31T04:38:13.637Z,89.86
2018-01-31T04:39:13.632Z,91.14
2018-01-31T04:40:13.646Z,91.38
2018-01-31T04:41:13.659Z,91.66
2018-01-31T04:42:13.676Z,91.66
2018-01-31T04:43:13.688Z,90.90
2018-01-31T04:44:13.703Z,91.28
2018-01-31T04:45:13.716Z,91.42
2018-01-31T04:46:13.734Z,92.47
2018-01-31T04:47:13.747Z,92.13
2018-01-31T04:48:13.764Z,91.47
2018-01-31T04:49:13.776Z,92.23
2018-01-31T04:50:13.789Z,91.28
2018-01-31T04:51:13.802Z,91.09
2018-01-31T04:52:13.816Z,91.56
2018-01-31T04:53:13.831Z,91.47
2018-01-31T04:54:13.846Z,92.04
2018-01-31T04:55:13.862Z,92.56
2018-01-31T04:56:13.876Z,93.41
2018-01-31T04:57:13.892Z,92.80
2018-01-31T04:58:13.903Z,93.41
2018-01-31T04:59:13.918Z,93.13
2018-01-31T05:00:13.930Z,93.89
2018-01-31T05:01:13.947Z,93.75
2018-01-31T05:02:13.960Z,93.56
2018-01-31T05:03:13.974Z,93.60
2018-01-31T05:04:13.989Z,93.94
2018-01-31T05:05:14.006Z,93.75
2018-01-31T05:06:14.018Z,93.08
2018-01-31T05:07:14.030Z,92.99
2018-01-31T05:08:14.045Z,93.80
2018-01-31T05:09:14.060Z,94.84
2018-01-31T05:10:14.076Z,94.74
2018-01-31T05:11:14.086Z,94.23
2018-01-31T05:12:14.114Z,93.94
2018-01-31T05:13:14.117Z,93.94
2018-01-31T05:14:14.132Z,93.65
2018-01-31T05:15:14.144Z,93.56
2018-01-31T05:16:14.156Z,94.03
2018-01-31T05:17:14.177Z,93.84
2018-01-31T05:18:14.190Z,93.18
2018-01-31T05:19:14.201Z,93.65
2018-01-31T05:20:14.215Z,94.03
2018-01-31T05:21:14.229Z,93.75
2018-01-31T05:22:14.247Z,93.75
2018-01-31T05:23:14.261Z,94.03
2018-01-31T05:24:14.271Z,94.60
2018-01-31T05:25:14.287Z,94.42
2018-01-31T05:26:14.299Z,94.32
2018-01-31T05:27:14.319Z,94.98
2018-01-31T05:28:14.327Z,95.17
2018-01-31T05:29:14.342Z,94.51
2018-01-31T05:30:14.361Z,94.60
2018-01-31T05:31:14.377Z,95.17
2018-01-31T05:32:14.388Z,94.98
2018-01-31T05:33:14.403Z,95.55
2018-01-31T05:34:14.416Z,95.08
2018-01-31T05:35:14.432Z,94.60
2018-01-31T05:36:14.446Z,94.79
2018-01-31T05:37:14.458Z,94.70
2018-01-31T05:38:14.472Z,94.98
2018-01-31T05:39:14.486Z,94.79
2018-01-31T05:40:14.501Z,94.98
2018-01-31T05:41:14.515Z,94.60
2018-01-31T05:42:14.532Z,94.42
2018-01-31T05:43:14.543Z,94.51
2018-01-31T05:44:14.559Z,94.56
2018-01-31T05:45:14.573Z,94.18
2018-01-31T05:46:14.590Z,93.89
2018-01-31T05:47:14.604Z,94.74
2018-01-31T05:48:14.618Z,94.60
2018-01-31T05:49:14.630Z,95.17
2018-01-31T05:50:14.651Z,95.84
2018-01-31T05:51:14.662Z,95.94
2018-01-31T05:52:14.673Z,96.41
2018-01-31T05:53:14.688Z,96.31
2018-01-31T05:54:14.708Z,95.75
2018-01-31T05:55:14.714Z,95.17
2018-01-31T05:56:14.733Z,95.17
2018-01-31T05:57:14.760Z,95.12
2018-01-31T05:58:14.761Z,95.08
2018-01-31T05:59:14.776Z,95.22
2018-01-31T06:00:14.792Z,95.03
2018-01-31T06:01:14.802Z,94.93
2018-01-31T06:02:14.820Z,95.22
2018-01-31T06:03:14.832Z,95.75
2018-01-31T06:04:14.845Z,96.17
2018-01-31T06:05:14.862Z,95.22
2018-01-31T06:06:14.878Z,95.32
2018-01-31T06:07:14.890Z,96.03
2018-01-31T06:08:14.905Z,96.17
2018-01-31T06:09:14.920Z,96.36
2018-01-31T06:10:14.936Z,95.03
2018-01-31T06:11:14.949Z,95.98
2018-01-31T06:12:14.966Z,95.22
2018-01-31T06:13:14.981Z,95.70
2018-01-31T06:14:14.995Z,95.51
2018-01-31T06:15:15.007Z,95.03
2018-01-31T06:16:15.021Z,94.37
2018-01-31T06:17:15.035Z,94.37
2018-01-31T06:18:15.049Z,94.46
2018-01-31T06:19:15.068Z,94.37
2018-01-31T06:20:15.080Z,94.74
2018-01-31T06:21:15.094Z,95.89
2018-01-31T06:22:15.111Z,96.36
2018-01-31T06:23:15.121Z,95.51
2018-01-31T06:24:15.138Z,96.08
2018-01-31T06:25:15.155Z,95.12
2018-01-31T06:26:15.171Z,95.22
2018-01-31T06:27:15.182Z,94.84
2018-01-31T06:28:15.199Z,95.03
2018-01-31T06:29:15.217Z,94.74
2018-01-31T06:30:15.227Z,95.41
2018-01-31T06:31:15.241Z,95.79
2018-01-31T06:32:15.259Z,95.79
2018-01-31T06:33:15.274Z,96.08
2018-01-31T06:34:15.287Z,95.79
2018-01-31T06:35:15.303Z,97.03
2018-01-31T06:36:15.315Z,96.93
2018-01-31T06:37:15.332Z,97.03
2018-01-31T06:38:15.355Z,97.41
2018-01-31T06:39:15.358Z,97.60
2018-01-31T06:40:15.373Z,97.69
2018-01-31T06:41:15.388Z,97.31
2018-01-31T06:42:15.403Z,97.50
2018-01-31T06:43:15.420Z,97.22
2018-01-31T06:44:15.433Z,97.03
2018-01-31T06:45:15.453Z,96.36
2018-01-31T06:46:15.463Z,95.94
2018-01-31T06:47:15.477Z,96.08
2018-01-31T06:48:15.491Z,96.41
2018-01-31T06:49:15.507Z,96.08
2018-01-31T06:50:15.522Z,96.45
2018-01-31T06:51:15.535Z,96.65
2018-01-31T06:52:15.551Z,97.03
2018-01-31T06:53:15.567Z,97.31
2018-01-31T06:54:15.578Z,96.65
2018-01-31T06:55:15.597Z,96.93
2018-01-31T06:56:15.612Z,96.89
2018-01-31T06:57:15.624Z,96.60
2018-01-31T06:58:15.638Z,96.84
2018-01-31T06:59:15.654Z,96.93
2018-01-31T07:00:15.669Z,97.08
2018-01-31T07:01:15.683Z,96.65
2018-01-31T07:02:15.698Z,97.69
2018-01-31T07:03:15.714Z,97.69
2018-01-31T07:04:15.734Z,97.17
2018-01-31T07:05:15.747Z,96.98
2018-01-31T07:06:15.758Z,97.74
2018-01-31T07:07:15.771Z,97.78
2018-01-31T07:08:15.787Z,98.36
2018-01-31T07:09:15.803Z,98.36
2018-01-31T07:10:15.816Z,98.07
2018-01-31T07:11:15.830Z,98.26
2018-01-31T07:12:15.847Z,98.17
2018-01-31T07:13:15.860Z,97.78
2018-01-31T07:14:15.876Z,98.45
2018-01-31T07:15:15.888Z,98.22
2018-01-31T07:16:15.904Z,97.74
2018-01-31T07:17:15.919Z,97.55
2018-01-31T07:18:15.935Z,97.45
2018-01-31T07:19:15.950Z,97.36
2018-01-31T07:20:15.970Z,97.64
2018-01-31T07:21:16.001Z,97.17
2018-01-31T07:22:15.994Z,96.89
2018-01-31T07:23:16.008Z,96.89
2018-01-31T07:24:16.021Z,97.55
2018-01-31T07:25:16.040Z,98.31
2018-01-31T07:26:16.053Z,97.74
2018-01-31T07:27:16.068Z,97.74
2018-01-31T07:28:16.084Z,98.22
2018-01-31T07:29:16.098Z,97.55
2018-01-31T07:30:16.111Z,97.74
2018-01-31T07:31:16.124Z,97.45
2018-01-31T07:32:16.155Z,97.17
2018-01-31T07:33:16.159Z,96.69
2018-01-31T07:34:16.173Z,96.50
2018-01-31T07:35:16.195Z,96.69
2018-01-31T07:36:16.201Z,96.98
2018-01-31T07:37:16.216Z,97.27
2018-01-31T07:38:16.278Z,98.03
2018-01-31T07:39:16.254Z,98.22
2018-01-31T07:40:16.261Z,98.12
2018-01-31T07:41:16.276Z,98.31
2018-01-31T07:42:16.293Z,97.74
2018-01-31T07:43:16.305Z,97.03
2018-01-31T07:44:16.322Z,96.94
2018-01-31T07:45:16.337Z,96.98
2018-01-31T07:46:16.351Z,96.17
2018-01-31T07:47:16.365Z,96.55
2018-01-31T07:48:16.381Z,95.98
2018-01-31T07:49:16.395Z,95.89
2018-01-31T07:50:16.418Z,96.46
2018-01-31T07:51:16.425Z,96.55
2018-01-31T07:52:16.448Z,95.89
2018-01-31T07:53:16.456Z,96.50
2018-01-31T07:54:16.471Z,96.89
2018-01-31T07:55:16.484Z,96.74
2018-01-31T07:56:16.503Z,96.84
2018-01-31T07:57:16.517Z,96.17
2018-01-31T07:58:16.533Z,96.17
2018-01-31T07:59:16.545Z,96.17
2018-01-31T08:00:16.558Z,96.74
2018-01-31T08:01:16.583Z,96.65
2018-01-31T08:02:16.592Z,95.98
2018-01-31T08:03:16.606Z,96.17
2018-01-31T08:04:16.620Z,97.03
2018-01-31T08:05:16.640Z,97.13
2018-01-31T08:06:16.651Z,96.55
2018-01-31T08:07:16.673Z,96.94
2018-01-31T08:08:16.682Z,96.36
2018-01-31T08:09:16.698Z,96.74
2018-01-31T08:10:16.713Z,96.26
2018-01-31T08:11:16.727Z,96.17
2018-01-31T08:12:16.742Z,96.74
2018-01-31T08:13:16.759Z,97.03
2018-01-31T08:14:16.778Z,96.65
2018-01-31T08:15:16.788Z,96.55
2018-01-31T08:16:16.808Z,96.55
2018-01-31T08:17:16.821Z,96.55
2018-01-31T08:18:16.834Z,96.84
2018-01-31T08:19:16.850Z,96.65
2018-01-31T08:20:16.865Z,96.17
2018-01-31T08:21:16.881Z,95.51
2018-01-31T08:22:16.897Z,95.36
2018-01-31T08:23:16.910Z,96.08
2018-01-31T08:24:16.924Z,95.98
2018-01-31T08:25:16.942Z,96.17
2018-01-31T08:26:16.961Z,95.60
2018-01-31T08:27:16.973Z,96.17
2018-01-31T08:28:16.988Z,96.84
2018-01-31T08:29:17.003Z,96.31
2018-01-31T08:30:17.019Z,96.74
2018-01-31T08:31:17.033Z,96.84
2018-01-31T08:32:17.052Z,96.70
2018-01-31T08:33:17.065Z,96.17
2018-01-31T08:34:17.080Z,95.84
2018-01-31T08:35:17.097Z,96.17
2018-01-31T08:36:17.111Z,95.98
2018-01-31T08:37:17.126Z,96.03
2018-01-31T08:38:17.142Z,95.84
2018-01-31T08:39:17.156Z,96.03
2018-01-31T08:40:17.175Z,96.31
2018-01-31T08:41:17.190Z,96.03
2018-01-31T08:42:17.206Z,95.36
2018-01-31T08:43:17.223Z,94.89
2018-01-31T08:44:17.238Z,94.98
2018-01-31T08:45:17.254Z,94.98
2018-01-31T08:46:17.269Z,95.27
2018-01-31T08:47:17.280Z,94.56
2018-01-31T08:48:17.309Z,94.27
2018-01-31T08:49:17.312Z,94.65
2018-01-31T08:50:17.331Z,94.37
2018-01-31T08:51:17.343Z,94.08
2018-01-31T08:52:17.362Z,94.37
2018-01-31T08:53:17.376Z,93.89
2018-01-31T08:54:17.396Z,94.37
2018-01-31T08:55:17.407Z,94.08
2018-01-31T08:56:17.424Z,94.27
2018-01-31T08:57:17.438Z,93.03
2018-01-31T08:58:17.454Z,93.41
2018-01-31T08:59:17.474Z,93.51
2018-01-31T09:00:17.487Z,93.51
2018-01-31T09:01:17.502Z,93.41
2018-01-31T09:02:17.521Z,93.41
2018-01-31T09:03:17.533Z,93.13
2018-01-31T09:04:17.550Z,93.60
2018-01-31T09:05:17.568Z,93.32
2018-01-31T09:06:17.580Z,92.79
2018-01-31T09:07:17.601Z,92.69
2018-01-31T09:08:17.613Z,92.46
2018-01-31T09:09:17.628Z,92.94
2018-01-31T09:10:17.646Z,92.89
2018-01-31T09:11:17.663Z,92.74
2018-01-31T09:12:17.678Z,92.69
2018-01-31T09:13:17.700Z,92.50
2018-01-31T09:14:17.711Z,92.55
2018-01-31T09:15:17.727Z,93.03
2018-01-31T09:16:17.744Z,93.60
2018-01-31T09:17:17.758Z,94.65
2018-01-31T09:18:17.777Z,94.17
2018-01-31T09:19:17.793Z,94.13
2018-01-31T09:20:17.806Z,93.27
2018-01-31T09:21:17.824Z,93.37
2018-01-31T09:22:17.839Z,93.37
2018-01-31T09:23:17.854Z,93.27
2018-01-31T09:24:17.871Z,92.89
2018-01-31T09:25:17.887Z,93.37
2018-01-31T09:26:17.905Z,92.41
2018-01-31T09:27:17.919Z,92.50
2018-01-31T09:28:17.935Z,92.22
2018-01-31T09:29:17.951Z,92.13
2018-01-31T09:30:18.030Z,92.41
2018-01-31T09:31:17.984Z,91.94
2018-01-31T09:32:17.998Z,91.27
2018-01-31T09:33:18.018Z,91.65
2018-01-31T09:34:18.033Z,92.03
2018-01-31T09:35:18.051Z,92.98
2018-01-31T09:36:18.066Z,92.60
2018-01-31T09:37:18.088Z,92.03
2018-01-31T09:38:18.101Z,92.03
2018-01-31T09:39:18.114Z,91.84
2018-01-31T09:40:18.129Z,91.94
2018-01-31T09:41:18.147Z,92.41
2018-01-31T09:42:18.165Z,92.69
2018-01-31T09:43:18.180Z,92.50
2018-01-31T09:44:18.198Z,92.69
2018-01-31T09:45:18.213Z,93.08
2018-01-31T09:46:18.233Z,93.41
2018-01-31T09:47:18.245Z,92.60
2018-01-31T09:48:18.262Z,93.41
2018-01-31T09:49:18.278Z,93.32
2018-01-31T09:50:18.293Z,93.46
2018-01-31T09:51:18.309Z,92.79
2018-01-31T09:52:18.327Z,91.84
2018-01-31T09:53:18.498Z,91.94
2018-01-31T09:54:18.358Z,91.84
2018-01-31T09:55:18.375Z,91.84
2018-01-31T09:56:18.391Z,92.03
2018-01-31T09:57:18.411Z,92.03
2018-01-31T09:58:18.427Z,91.74
2018-01-31T09:59:18.444Z,91.27
2018-01-31T10:00:18.456Z,91.22
2018-01-31T10:01:18.471Z,91.36
2018-01-31T10:02:18.492Z,91.08
2018-01-31T10:03:18.506Z,91.55
2018-01-31T10:04:18.522Z,91.13
2018-01-31T10:05:18.540Z,91.03
2018-01-31T10:06:18.553Z,90.17
2018-01-31T10:07:18.569Z,91.79
2018-01-31T10:08:18.588Z,91.31
2018-01-31T10:09:18.603Z,91.17
2018-01-31T10:10:18.626Z,91.94
2018-01-31T10:11:18.684Z,91.55
2018-01-31T10:12:18.655Z,91.94
2018-01-31T10:13:18.673Z,91.94
2018-01-31T10:14:18.687Z,91.84
2018-01-31T10:15:18.702Z,91.79
2018-01-31T10:16:18.719Z,91.74
2018-01-31T10:17:18.738Z,91.46
2018-01-31T10:18:18.751Z,92.08
2018-01-31T10:19:18.769Z,92.79
2018-01-31T10:20:18.786Z,92.79
2018-01-31T10:21:18.801Z,91.98
2018-01-31T10:22:18.818Z,91.65
2018-01-31T10:23:18.838Z,91.88
2018-01-31T10:24:18.849Z,91.60
2018-01-31T10:25:18.866Z,90.45
2018-01-31T10:26:18.883Z,90.93
2018-01-31T10:27:18.900Z,90.93
2018-01-31T10:28:18.915Z,91.60
2018-01-31T10:29:18.934Z,91.17
2018-01-31T10:30:18.950Z,92.03
2018-01-31T10:31:18.964Z,91.79
2018-01-31T10:32:18.981Z,91.74
2018-01-31T10:33:19.002Z,92.13
2018-01-31T10:34:19.015Z,91.65
2018-01-31T10:35:19.031Z,91.79
2018-01-31T10:36:19.051Z,91.41
2018-01-31T10:37:19.064Z,91.60
2018-01-31T10:38:19.080Z,91.22
2018-01-31T10:39:19.101Z,91.60
2018-01-31T10:40:19.123Z,92.32
2018-01-31T10:41:19.130Z,92.50
2018-01-31T10:42:19.147Z,92.17
2018-01-31T10:43:19.164Z,91.31
2018-01-31T10:44:19.178Z,91.13
2018-01-31T10:45:19.195Z,90.84
2018-01-31T10:46:19.212Z,90.93
2018-01-31T10:47:19.228Z,91.79
2018-01-31T10:48:19.246Z,91.03
2018-01-31T10:49:19.269Z,91.03
2018-01-31T10:50:19.279Z,91.13
2018-01-31T10:51:19.294Z,91.50
2018-01-31T10:52:19.314Z,91.22
2018-01-31T10:53:19.327Z,90.74
2018-01-31T10:57:28.864Z,89.98
2018-01-31T10:58:19.409Z,89.74
2018-01-31T10:59:19.429Z,89.07
2018-01-31T11:00:19.440Z,89.17
2018-01-31T11:01:19.461Z,89.17
2018-01-31T11:02:19.477Z,88.78
2018-01-31T11:03:19.492Z,89.03
2018-01-31T11:04:19.509Z,89.12
2018-01-31T11:05:19.527Z,89.83
2018-01-31T11:06:19.545Z,89.26
2018-01-31T11:07:19.563Z,88.78
2018-01-31T11:08:19.574Z,88.31
2018-01-31T11:09:19.596Z,88.78
2018-01-31T11:10:19.610Z,88.50
2018-01-31T11:11:19.626Z,88.59
2018-01-31T11:12:19.644Z,87.83
2018-01-31T11:13:19.664Z,87.21
2018-01-31T11:14:19.682Z,87.83
2018-01-31T11:15:19.695Z,88.21
2018-01-31T11:16:19.715Z,87.64
2018-01-31T11:17:19.737Z,87.93
2018-01-31T11:18:19.745Z,87.45
2018-01-31T11:19:19.763Z,87.64
2018-01-31T11:20:19.780Z,86.54
2018-01-31T11:21:19.795Z,87.02
2018-01-31T11:22:19.813Z,86.35
2018-01-31T11:23:19.838Z,86.35
2018-01-31T11:24:19.847Z,85.39
2018-01-31T11:25:19.865Z,86.69
2018-01-31T11:26:19.881Z,87.02
2018-01-31T11:27:19.902Z,86.69
2018-01-31T11:28:19.913Z,87.26
2018-01-31T11:29:19.933Z,88.21
2018-01-31T11:30:19.951Z,88.12
2018-01-31T11:31:19.969Z,88.31
2018-01-31T11:32:19.984Z,87.83
2018-01-31T11:33:20.010Z,87.45
2018-01-31T11:34:20.022Z,87.45
2018-01-31T11:35:20.038Z,87.93
2018-01-31T11:36:20.056Z,88.12
2018-01-31T11:37:20.070Z,87.64
2018-01-31T11:38:20.088Z,87.83
2018-01-31T11:39:20.107Z,87.45
2018-01-31T11:40:20.124Z,86.59
2018-01-31T11:41:20.139Z,86.88
2018-01-31T11:42:20.157Z,86.06
2018-01-31T11:43:20.173Z,86.44
2018-01-31T11:44:20.191Z,86.35
2018-01-31T11:45:20.207Z,85.68
2018-01-31T11:46:20.231Z,86.44
2018-01-31T11:47:20.243Z,86.54
2018-01-31T11:48:20.259Z,85.97
2018-01-31T11:49:20.275Z,85.97
2018-01-31T11:50:20.292Z,85.01
2018-01-31T11:51:20.314Z,85.39
2018-01-31T11:52:20.327Z,85.01
2018-01-31T11:53:20.346Z,85.25
2018-01-31T11:54:20.370Z,85.54
2018-01-31T11:55:20.390Z,85.68
2018-01-31T11:56:20.399Z,85.68
2018-01-31T11:57:20.415Z,85.87
2018-01-31T11:58:20.435Z,85.49
2018-01-31T11:59:20.446Z,85.77
2018-01-31T12:00:20.466Z,85.87
2018-01-31T12:01:20.484Z,85.64
2018-01-31T12:02:20.501Z,86.78
2018-01-31T12:03:20.517Z,86.49
2018-01-31T12:04:20.531Z,86.30
2018-01-31T12:05:20.555Z,86.49
2018-01-31T12:06:20.572Z,86.21
2018-01-31T12:07:20.586Z,86.21
2018-01-31T12:08:20.601Z,86.30
2018-01-31T12:09:20.639Z,86.30
2018-01-31T12:10:20.638Z,86.11
2018-01-31T12:11:20.656Z,86.11
2018-01-31T12:12:20.670Z,86.40
2018-01-31T12:13:20.688Z,86.11
2018-01-31T12:14:20.706Z,86.11
2018-01-31T12:15:20.719Z,86.98
2018-01-31T12:16:20.740Z,86.98
2018-01-31T12:17:20.764Z,86.21
2018-01-31T12:18:20.773Z,86.02
2018-01-31T12:19:20.789Z,86.11
2018-01-31T12:20:20.809Z,86.02
2018-01-31T12:21:20.825Z,85.93
2018-01-31T12:22:20.839Z,86.30
2018-01-31T12:23:20.858Z,86.88
2018-01-31T12:24:20.873Z,86.93
2018-01-31T12:25:20.891Z,87.16
2018-01-31T12:26:20.910Z,86.69
2018-01-31T12:27:21.008Z,87.50
2018-01-31T12:28:20.941Z,87.50
2018-01-31T12:29:20.973Z,87.40
2018-01-31T12:30:20.976Z,87.50
2018-01-31T12:31:20.995Z,87.50
2018-01-31T12:32:21.007Z,87.12
2018-01-31T12:33:21.025Z,87.45
2018-01-31T12:34:21.042Z,86.59
2018-01-31T12:35:21.058Z,86.69
2018-01-31T12:36:21.076Z,86.49
2018-01-31T12:37:21.093Z,86.11
2018-01-31T12:38:21.110Z,86.30
2018-01-31T12:39:21.129Z,86.88
2018-01-31T12:40:21.144Z,86.69
2018-01-31T12:41:21.161Z,86.83
2018-01-31T12:42:21.175Z,87.07
2018-01-31T12:43:21.191Z,87.02
2018-01-31T12:44:21.210Z,86.65
2018-01-31T12:45:21.227Z,88.26
2018-01-31T12:46:21.247Z,87.88
2018-01-31T12:47:21.257Z,87.40
2018-01-31T12:48:21.276Z,87.21
2018-01-31T12:49:21.296Z,87.31
2018-01-31T12:50:21.311Z,86.93
2018-01-31T12:51:21.326Z,86.88
2018-01-31T12:52:21.344Z,86.65
2018-01-31T12:53:21.361Z,86.93
2018-01-31T12:54:21.378Z,86.65
2018-01-31T12:55:21.391Z,87.40
2018-01-31T12:56:21.411Z,87.98
2018-01-31T12:57:21.427Z,88.36
2018-01-31T12:58:21.445Z,87.69
2018-01-31T12:59:21.458Z,87.98
2018-01-31T13:00:21.477Z,87.40
2018-01-31T13:01:21.491Z,87.02
2018-01-31T13:02:21.510Z,87.21
2018-01-31T13:03:21.524Z,87.31
2018-01-31T13:04:21.546Z,87.40
2018-01-31T13:05:21.562Z,87.31
2018-01-31T13:06:21.584Z,86.74
2018-01-31T13:07:21.597Z,86.55
2018-01-31T13:08:21.610Z,87.69
2018-01-31T13:09:21.626Z,87.31
2018-01-31T13:10:21.647Z,86.83
2018-01-31T13:11:21.658Z,87.40
2018-01-31T13:12:21.676Z,87.79
2018-01-31T13:13:21.691Z,87.12
2018-01-31T13:14:21.710Z,88.03
2018-01-31T13:15:21.726Z,88.79
2018-01-31T13:16:21.743Z,88.89
2018-01-31T13:17:21.756Z,88.60
2018-01-31T13:18:21.781Z,88.79
2018-01-31T13:19:21.790Z,88.51
2018-01-31T13:20:21.811Z,88.84
2018-01-31T13:21:21.824Z,88.98
2018-01-31T13:22:21.840Z,89.07
2018-01-31T13:23:21.987Z,88.74
2018-01-31T13:24:21.874Z,89.55
2018-01-31T13:25:21.888Z,90.03
2018-01-31T13:26:21.909Z,90.41
2018-01-31T13:27:21.923Z,90.50
2018-01-31T13:28:21.937Z,90.60
2018-01-31T13:29:21.957Z,90.60
2018-01-31T13:30:21.972Z,90.41
2018-01-31T13:31:21.985Z,89.94
2018-01-31T13:32:22.003Z,91.46
2018-01-31T13:33:22.019Z,90.70
2018-01-31T13:34:22.045Z,91.17
2018-01-31T13:35:22.052Z,91.36
2018-01-31T13:36:22.070Z,92.13
2018-01-31T13:37:22.083Z,92.03
2018-01-31T13:38:22.101Z,92.41
2018-01-31T13:39:22.117Z,92.03
2018-01-31T13:40:22.134Z,92.22
2018-01-31T13:41:22.148Z,92.22
2018-01-31T13:42:22.187Z,92.03
2018-01-31T13:43:22.182Z,91.84
2018-01-31T13:44:22.197Z,91.08
2018-01-31T13:45:22.214Z,91.17
2018-01-31T13:46:22.233Z,91.74
2018-01-31T13:47:22.247Z,91.84
2018-01-31T13:48:22.262Z,91.46
2018-01-31T13:49:22.280Z,90.79
2018-01-31T13:50:22.298Z,90.79
2018-01-31T13:51:22.314Z,90.79
2018-01-31T13:52:22.326Z,91.65
2018-01-31T13:53:22.346Z,91.74
2018-01-31T13:54:22.358Z,90.79
2018-01-31T13:55:22.375Z,90.64
2018-01-31T13:56:22.391Z,90.41
2018-01-31T13:57:22.410Z,90.50
2018-01-31T13:58:22.427Z,90.79
2018-01-31T13:59:22.442Z,90.89
2018-01-31T14:00:22.456Z,90.70
2018-01-31T14:01:22.473Z,90.50
2018-01-31T14:02:22.494Z,90.50
2018-01-31T14:03:22.502Z,89.84
2018-01-31T14:04:22.531Z,91.74
2018-01-31T14:05:22.538Z,91.27
2018-01-31T14:06:22.554Z,92.32
2018-01-31T14:07:22.567Z,92.32
2018-01-31T14:08:22.589Z,92.03
2018-01-31T14:09:22.603Z,92.79
2018-01-31T14:10:22.619Z,92.79
2018-01-31T14:11:22.644Z,92.13
2018-01-31T14:12:22.651Z,92.32
2018-01-31T14:13:22.667Z,91.65
2018-01-31T14:14:22.685Z,91.94
2018-01-31T14:15:22.699Z,92.03
2018-01-31T14:16:22.757Z,92.41
2018-01-31T14:17:22.736Z,92.69
2018-01-31T14:18:22.748Z,92.84
2018-01-31T14:19:22.766Z,93.46
2018-01-31T14:20:22.783Z,93.27
2018-01-31T14:21:22.797Z,92.79
2018-01-31T14:22:22.816Z,92.13
2018-01-31T14:23:22.830Z,92.13
2018-01-31T14:24:22.848Z,91.55
2018-01-31T14:25:22.861Z,91.94
2018-01-31T14:26:22.879Z,91.65
2018-01-31T14:27:22.894Z,92.22
2018-01-31T14:28:22.910Z,92.32
2018-01-31T14:29:22.928Z,91.55
2018-01-31T14:30:22.944Z,91.17
2018-01-31T14:31:22.959Z,91.74
2018-01-31T14:32:22.975Z,92.36
2018-01-31T14:33:22.992Z,92.79
2018-01-31T14:34:23.009Z,92.13
2018-01-31T14:35:23.026Z,91.46
2018-01-31T14:36:23.045Z,90.60
2018-01-31T14:37:23.056Z,91.55
2018-01-31T14:38:23.077Z,91.55
2018-01-31T14:39:23.087Z,91.08
2018-01-31T14:40:23.104Z,90.89
2018-01-31T14:41:23.120Z,90.98
2018-01-31T14:42:23.137Z,91.36
2018-01-31T14:43:23.177Z,90.98
2018-01-31T14:44:23.174Z,90.79
2018-01-31T14:45:23.188Z,90.41
2018-01-31T14:46:23.203Z,90.98
2018-01-31T14:47:23.219Z,90.79